createdAt,value
2018-08-09T00:01:13.023Z,18.80
2018-08-09T00:03:41.159Z,18.80
2018-08-09T00:06:09.323Z,18.70
2018-08-09T00:08:37.462Z,18.70
2018-08-09T00:11:05.607Z,18.70
2018-08-09T00:13:33.767Z,18.50
2018-08-09T00:16:01.908Z,18.50
2018-08-09T00:18:30.011Z,18.50
2018-08-09T00:20:58.139Z,18.40
2018-08-09T00:23:26.291Z,18.50
2018-08-09T00:25:54.413Z,18.50
2018-08-09T00:28:22.549Z,18.60
2018-08-09T00:30:51.020Z,18.60
2018-08-09T00:33:19.202Z,18.60
2018-08-09T00:35:47.328Z,18.70
2018-08-09T00:38:15.474Z,18.70
2018-08-09T00:40:44.180Z,18.70
2018-08-09T00:43:13.493Z,18.70
2018-08-09T00:45:41.625Z,18.70
2018-08-09T00:48:09.942Z,18.70
2018-08-09T00:50:38.058Z,18.60
2018-08-09T00:53:06.201Z,18.60
2018-08-09T00:55:34.323Z,18.60
2018-08-09T00:58:02.484Z,18.50
2018-08-09T01:00:31.202Z,18.50
2018-08-09T01:02:59.410Z,18.40
2018-08-09T01:05:27.511Z,18.30
2018-08-09T01:07:55.700Z,18.20
2018-08-09T01:10:24.019Z,18.20
2018-08-09T01:12:52.154Z,18.20
2018-08-09T01:15:20.319Z,18.20
2018-08-09T01:17:48.474Z,18.10
2018-08-09T01:20:18.276Z,18.10
2018-08-09T01:22:46.451Z,18.10
2018-08-09T01:25:14.658Z,18.10
2018-08-09T01:27:42.780Z,18.10
2018-08-09T01:30:11.007Z,18.00
2018-08-09T01:32:39.142Z,18.00
2018-08-09T01:35:08.016Z,18.00
2018-08-09T01:37:36.520Z,18.00
2018-08-09T01:40:05.906Z,18.00
2018-08-09T01:42:45.570Z,18.00
2018-08-09T01:45:14.088Z,18.00
2018-08-09T01:47:43.440Z,18.00
2018-08-09T01:50:11.838Z,18.00
2018-08-09T01:52:39.982Z,18.00
2018-08-09T01:55:08.108Z,18.00
2018-08-09T01:57:36.252Z,18.00
2018-08-09T02:00:05.231Z,18.00
2018-08-09T02:02:33.399Z,18.00
2018-08-09T02:05:01.658Z,18.00
2018-08-09T02:07:29.804Z,18.00
2018-08-09T02:09:57.966Z,18.00
2018-08-09T02:12:26.985Z,18.00
2018-08-09T02:14:55.123Z,18.10
2018-08-09T02:17:23.987Z,18.10
2018-08-09T02:19:52.127Z,18.20
2018-08-09T02:22:20.261Z,18.20
2018-08-09T02:24:48.407Z,18.20
2018-08-09T02:27:16.549Z,18.30
2018-08-09T02:29:44.721Z,18.30
2018-08-09T02:32:12.853Z,18.30
2018-08-09T02:34:41.031Z,18.30
2018-08-09T02:37:09.189Z,18.30
2018-08-09T02:39:37.362Z,18.30
2018-08-09T02:42:05.502Z,18.40
2018-08-09T02:44:33.719Z,18.40
2018-08-09T02:47:02.004Z,18.40
2018-08-09T02:49:30.919Z,18.40
2018-08-09T02:51:59.031Z,18.40
2018-08-09T02:54:27.197Z,18.40
2018-08-09T02:56:55.363Z,18.40
2018-08-09T02:59:23.550Z,18.40
2018-08-09T03:01:51.691Z,18.40
2018-08-09T03:04:19.821Z,18.40
2018-08-09T03:06:47.969Z,18.30
2018-08-09T03:09:16.122Z,18.30
2018-08-09T03:11:44.241Z,18.30
2018-08-09T03:14:12.505Z,18.30
2018-08-09T03:16:40.662Z,18.30
2018-08-09T03:19:08.819Z,18.30
2018-08-09T03:21:36.991Z,18.30
2018-08-09T03:24:05.194Z,18.30
2018-08-09T03:26:33.325Z,18.30
2018-08-09T03:29:01.475Z,18.20
2018-08-09T03:31:29.672Z,18.20
2018-08-09T03:33:57.868Z,18.20
2018-08-09T03:36:26.046Z,18.10
2018-08-09T03:38:54.185Z,18.20
2018-08-09T03:41:22.346Z,18.20
2018-08-09T03:43:50.522Z,18.20
2018-08-09T03:46:18.662Z,18.10
2018-08-09T03:48:46.814Z,18.10
2018-08-09T03:51:14.983Z,18.10
2018-08-09T03:53:43.145Z,18.20
2018-08-09T03:56:11.286Z,18.20
2018-08-09T03:58:39.421Z,18.20
2018-08-09T04:01:07.604Z,18.20
2018-08-09T04:03:35.745Z,18.20
2018-08-09T04:06:03.853Z,18.20
2018-08-09T04:08:32.150Z,18.20
2018-08-09T04:11:00.300Z,18.20
2018-08-09T04:13:28.497Z,18.20
2018-08-09T04:15:56.692Z,18.20
2018-08-09T04:18:24.836Z,18.20
2018-08-09T04:20:52.989Z,18.10
2018-08-09T04:23:21.124Z,18.10
2018-08-09T04:25:49.263Z,18.20
2018-08-09T04:28:17.402Z,18.20
2018-08-09T04:30:45.555Z,18.10
2018-08-09T04:33:13.701Z,18.10
2018-08-09T04:35:41.839Z,18.20
2018-08-09T04:38:09.983Z,18.20
2018-08-09T04:40:38.159Z,18.20
2018-08-09T04:43:06.343Z,18.20
2018-08-09T04:45:34.514Z,18.20
2018-08-09T04:48:02.712Z,18.20
2018-08-09T04:50:30.998Z,18.20
2018-08-09T04:52:59.145Z,18.20
2018-08-09T04:55:27.268Z,18.30
2018-08-09T04:57:55.503Z,18.30
2018-08-09T05:00:23.667Z,18.30
2018-08-09T05:02:51.784Z,18.30
2018-08-09T05:05:19.952Z,18.30
2018-08-09T05:07:48.120Z,18.40
2018-08-09T05:10:16.311Z,18.40
2018-08-09T05:12:44.450Z,18.50
2018-08-09T05:15:13.212Z,18.50
2018-08-09T05:17:41.353Z,18.60
2018-08-09T05:20:09.555Z,18.70
2018-08-09T05:22:37.746Z,18.70
2018-08-09T05:25:06.091Z,18.70
2018-08-09T05:27:34.236Z,18.80
2018-08-09T05:30:02.415Z,18.90
2018-08-09T05:32:30.618Z,18.90
2018-08-09T05:34:58.767Z,19.00
2018-08-09T05:37:26.910Z,19.00
2018-08-09T05:39:55.102Z,18.90
2018-08-09T05:42:23.231Z,18.90
2018-08-09T05:44:51.368Z,18.90
2018-08-09T05:47:19.555Z,18.90
2018-08-09T05:49:47.715Z,19.00
2018-08-09T05:52:15.858Z,19.10
2018-08-09T05:54:45.205Z,19.20
2018-08-09T05:57:13.359Z,19.20
2018-08-09T05:59:41.522Z,19.20
2018-08-09T06:02:09.678Z,19.20
2018-08-09T06:04:38.875Z,19.40
2018-08-09T06:07:07.227Z,19.70
2018-08-09T06:09:36.020Z,20.30
2018-08-09T06:12:04.241Z,21.00
2018-08-09T06:14:32.399Z,21.70
2018-08-09T06:17:00.556Z,22.20
2018-08-09T06:19:28.734Z,22.70
2018-08-09T06:21:56.951Z,23.10
2018-08-09T06:24:25.099Z,23.20
2018-08-09T06:26:53.280Z,23.10
2018-08-09T06:29:21.440Z,23.30
2018-08-09T06:31:49.694Z,23.50
2018-08-09T06:34:18.078Z,23.50
2018-08-09T06:36:46.256Z,23.90
2018-08-09T06:39:14.439Z,23.90
2018-08-09T06:41:42.589Z,23.70
2018-08-09T06:44:10.819Z,23.50
2018-08-09T06:46:39.072Z,23.10
2018-08-09T06:49:07.342Z,23.40
2018-08-09T06:51:35.520Z,23.10
2018-08-09T06:54:03.683Z,22.90
2018-08-09T06:56:31.868Z,22.90
2018-08-09T06:59:00.041Z,23.20
2018-08-09T07:01:28.178Z,23.40
2018-08-09T07:03:56.323Z,23.60
2018-08-09T07:06:25.405Z,23.60
2018-08-09T07:08:53.607Z,23.70
2018-08-09T07:11:24.333Z,23.40
2018-08-09T07:13:53.080Z,23.30
2018-08-09T07:16:21.723Z,23.30
2018-08-09T07:18:50.579Z,24.00
2018-08-09T07:21:19.281Z,24.80
2018-08-09T07:23:48.208Z,25.20
2018-08-09T07:26:16.444Z,25.80
2018-08-09T07:28:44.672Z,26.10
2018-08-09T07:31:12.878Z,26.40
2018-08-09T07:33:41.067Z,26.50
2018-08-09T07:36:09.206Z,26.80
2018-08-09T07:38:37.701Z,27.00
2018-08-09T07:41:05.855Z,27.20
2018-08-09T07:43:34.150Z,27.50
2018-08-09T07:46:02.307Z,27.80
2018-08-09T07:48:30.486Z,27.20
2018-08-09T07:50:58.635Z,27.20
2018-08-09T07:53:26.810Z,27.40
2018-08-09T07:55:54.974Z,28.00
2018-08-09T07:58:23.103Z,28.00
2018-08-09T08:00:51.332Z,28.70
2018-08-09T08:03:19.506Z,29.00
2018-08-09T08:05:47.732Z,28.00
2018-08-09T08:08:15.866Z,27.70
2018-08-09T08:10:43.981Z,28.30
2018-08-09T08:13:12.170Z,28.80
2018-08-09T08:15:40.289Z,28.80
2018-08-09T08:18:08.523Z,29.10
2018-08-09T08:20:36.757Z,29.00
2018-08-09T08:23:04.951Z,28.60
2018-08-09T08:25:33.082Z,28.80
2018-08-09T08:28:01.308Z,28.90
2018-08-09T08:30:29.539Z,28.90
2018-08-09T08:32:57.694Z,28.30
2018-08-09T08:35:25.821Z,28.30
2018-08-09T08:37:53.981Z,28.50
2018-08-09T08:40:22.134Z,28.80
2018-08-09T08:42:50.853Z,29.00
2018-08-09T08:45:19.012Z,29.10
2018-08-09T08:47:47.179Z,29.10
2018-08-09T08:50:15.321Z,29.00
2018-08-09T08:52:43.462Z,29.10
2018-08-09T08:55:12.582Z,28.90
2018-08-09T08:57:40.652Z,28.80
2018-08-09T09:00:10.659Z,29.10
2018-08-09T09:02:39.380Z,29.10
2018-08-09T09:05:09.373Z,29.00
2018-08-09T09:07:38.385Z,29.00
2018-08-09T09:10:07.475Z,29.30
2018-08-09T09:12:35.661Z,29.60
2018-08-09T09:15:06.322Z,29.50
2018-08-09T09:17:34.492Z,29.40
2018-08-09T09:20:02.983Z,29.50
2018-08-09T09:22:31.122Z,29.40
2018-08-09T09:24:59.319Z,29.70
2018-08-09T09:27:27.517Z,29.90
2018-08-09T09:29:55.679Z,29.80
2018-08-09T09:32:24.182Z,29.70
2018-08-09T09:34:52.352Z,30.40
2018-08-09T09:37:20.578Z,30.70
2018-08-09T09:39:48.710Z,31.20
2018-08-09T09:42:16.872Z,31.80
2018-08-09T09:44:45.042Z,32.40
2018-08-09T09:47:13.210Z,32.60
2018-08-09T09:49:41.386Z,32.30
2018-08-09T09:52:09.666Z,32.40
2018-08-09T09:54:37.838Z,32.50
2018-08-09T09:57:05.967Z,32.40
2018-08-09T09:59:34.097Z,32.20
2018-08-09T10:02:02.317Z,32.30
2018-08-09T10:04:30.400Z,32.20
2018-08-09T10:06:58.598Z,32.20
2018-08-09T10:09:26.728Z,32.10
2018-08-09T10:11:54.862Z,32.30
2018-08-09T10:14:22.994Z,32.90
2018-08-09T10:16:52.015Z,32.90
2018-08-09T10:19:20.210Z,33.40
2018-08-09T10:21:48.359Z,33.40
2018-08-09T10:24:16.527Z,32.80
2018-08-09T10:26:44.683Z,32.50
2018-08-09T10:29:12.822Z,32.10
2018-08-09T10:31:40.954Z,32.40
2018-08-09T10:34:09.095Z,32.40
2018-08-09T10:36:37.247Z,32.40
2018-08-09T10:39:09.391Z,32.70
2018-08-09T10:41:37.519Z,33.10
2018-08-09T10:44:05.630Z,32.80
2018-08-09T10:46:33.774Z,32.50
2018-08-09T10:49:02.002Z,32.50
2018-08-09T10:51:30.078Z,33.20
2018-08-09T10:53:59.091Z,33.00
2018-08-09T10:56:27.219Z,32.70
2018-08-09T10:58:55.357Z,31.90
2018-08-09T11:01:23.516Z,31.30
2018-08-09T11:03:51.807Z,30.80
2018-08-09T11:06:19.955Z,30.40
2018-08-09T11:08:48.082Z,30.10
2018-08-09T11:11:16.228Z,30.00
2018-08-09T11:13:45.437Z,29.90
2018-08-09T11:16:14.375Z,29.80
2018-08-09T11:18:43.332Z,29.70
2018-08-09T11:21:11.574Z,29.40
2018-08-09T11:23:39.908Z,29.30
2018-08-09T11:26:08.056Z,29.20
2018-08-09T11:28:36.223Z,29.10
2018-08-09T11:31:04.382Z,28.90
2018-08-09T11:33:32.621Z,28.80
2018-08-09T11:36:00.778Z,28.60
2018-08-09T11:38:28.946Z,27.90
2018-08-09T11:40:57.136Z,25.60
2018-08-09T11:43:25.251Z,23.40
2018-08-09T11:45:53.400Z,21.50
2018-08-09T11:48:21.570Z,20.60
2018-08-09T11:50:49.721Z,19.90
2018-08-09T11:53:17.851Z,19.50
2018-08-09T11:55:45.987Z,19.20
2018-08-09T11:58:14.154Z,19.20
2018-08-09T12:00:42.294Z,19.10
2018-08-09T12:03:10.443Z,19.20
2018-08-09T12:05:38.619Z,19.20
2018-08-09T12:08:06.791Z,19.30
2018-08-09T12:10:34.990Z,19.30
2018-08-09T12:13:03.210Z,19.40
2018-08-09T12:15:31.360Z,19.50
2018-08-09T12:17:59.498Z,19.60
2018-08-09T12:20:27.607Z,19.50
2018-08-09T12:22:55.791Z,19.50
2018-08-09T12:25:24.774Z,19.40
2018-08-09T12:27:52.898Z,19.30
2018-08-09T12:30:21.120Z,19.30
2018-08-09T12:32:49.235Z,19.20
2018-08-09T12:35:17.394Z,19.20
2018-08-09T12:37:45.545Z,19.30
2018-08-09T12:40:13.718Z,19.30
2018-08-09T12:42:41.888Z,19.40
2018-08-09T12:45:11.673Z,19.60
2018-08-09T12:47:40.234Z,19.60
2018-08-09T12:50:10.938Z,19.60
2018-08-09T12:52:39.583Z,19.70
2018-08-09T12:55:08.110Z,19.70
2018-08-09T12:57:36.863Z,19.70
2018-08-09T13:00:06.790Z,19.70
2018-08-09T13:02:34.854Z,19.80
2018-08-09T13:05:02.994Z,19.90
2018-08-09T13:07:31.135Z,19.90
2018-08-09T13:09:59.323Z,20.00
2018-08-09T13:12:28.613Z,20.10
2018-08-09T13:14:56.758Z,20.20
2018-08-09T13:17:24.996Z,20.20
2018-08-09T13:19:53.150Z,20.20
2018-08-09T13:22:21.262Z,20.20
2018-08-09T13:24:49.428Z,20.20
2018-08-09T13:27:17.582Z,20.30
2018-08-09T13:29:45.698Z,20.30
2018-08-09T13:32:13.867Z,20.30
2018-08-09T13:34:42.044Z,20.30
2018-08-09T13:37:10.194Z,20.40
2018-08-09T13:39:38.349Z,20.50
2018-08-09T13:42:06.482Z,20.50
2018-08-09T13:44:34.650Z,20.50
2018-08-09T13:47:02.773Z,20.50
2018-08-09T13:49:30.889Z,20.50
2018-08-09T13:51:59.027Z,20.60
2018-08-09T13:54:27.152Z,20.60
2018-08-09T13:56:55.298Z,20.60
2018-08-09T13:59:23.451Z,20.60
2018-08-09T14:01:51.593Z,20.70
2018-08-09T14:04:20.158Z,20.80
2018-08-09T14:06:48.307Z,21.00
2018-08-09T14:09:16.470Z,21.10
2018-08-09T14:11:44.651Z,21.20
2018-08-09T14:14:12.935Z,21.20
2018-08-09T14:16:41.109Z,21.30
2018-08-09T14:19:09.992Z,21.30
2018-08-09T14:21:38.511Z,21.30
2018-08-09T14:24:07.267Z,21.30
2018-08-09T14:26:35.418Z,21.50
2018-08-09T14:29:03.666Z,21.50
2018-08-09T14:31:31.807Z,21.40
2018-08-09T14:33:59.950Z,21.40
2018-08-09T14:36:28.120Z,21.30
2018-08-09T14:38:56.244Z,21.40
2018-08-09T14:41:24.378Z,21.50
2018-08-09T14:43:52.571Z,21.60
2018-08-09T14:46:20.743Z,21.70
2018-08-09T14:48:48.884Z,21.80
2018-08-09T14:51:17.050Z,21.80
2018-08-09T14:53:45.275Z,21.90
2018-08-09T14:56:13.351Z,21.90
2018-08-09T14:58:41.513Z,21.90
2018-08-09T15:01:09.701Z,21.90
2018-08-09T15:03:37.818Z,21.90
2018-08-09T15:06:06.198Z,21.90
2018-08-09T15:08:34.352Z,22.10
2018-08-09T15:11:02.533Z,22.10
2018-08-09T15:13:31.046Z,22.10
2018-08-09T15:15:59.183Z,22.20
2018-08-09T15:18:27.364Z,22.30
2018-08-09T15:20:55.550Z,22.50
2018-08-09T15:23:23.694Z,22.70
2018-08-09T15:25:51.890Z,22.80
2018-08-09T15:28:20.035Z,22.90
2018-08-09T15:30:48.205Z,23.00
2018-08-09T15:33:16.303Z,23.00
2018-08-09T15:35:45.450Z,23.00
2018-08-09T15:38:13.785Z,23.00
2018-08-09T15:40:41.878Z,22.90
2018-08-09T15:43:10.012Z,22.70
2018-08-09T15:45:38.151Z,22.60
2018-08-09T15:48:06.665Z,22.60
2018-08-09T15:50:34.810Z,22.50
2018-08-09T15:53:03.042Z,22.50
2018-08-09T15:55:31.235Z,22.50
2018-08-09T15:57:59.458Z,22.60
2018-08-09T16:00:27.675Z,22.60
2018-08-09T16:02:55.896Z,22.60
2018-08-09T16:05:24.098Z,22.70
2018-08-09T16:07:52.306Z,22.80
2018-08-09T16:10:20.485Z,22.70
2018-08-09T16:12:48.662Z,22.70
2018-08-09T16:15:18.145Z,22.60
2018-08-09T16:17:47.228Z,22.60
2018-08-09T16:20:15.587Z,22.60
2018-08-09T16:22:45.564Z,22.70
2018-08-09T16:25:14.983Z,23.00
2018-08-09T16:27:43.274Z,23.00
2018-08-09T16:30:15.926Z,22.90
2018-08-09T16:32:44.103Z,22.80
2018-08-09T16:35:12.844Z,22.80
2018-08-09T16:37:41.761Z,22.60
2018-08-09T16:40:12.042Z,22.60
2018-08-09T16:42:40.760Z,22.60
2018-08-09T16:45:09.996Z,22.70
2018-08-09T16:47:38.427Z,22.70
2018-08-09T16:50:07.644Z,22.60
2018-08-09T16:52:35.948Z,22.60
2018-08-09T16:55:04.823Z,22.50
2018-08-09T16:57:32.970Z,22.50
2018-08-09T17:00:01.144Z,22.50
2018-08-09T17:02:29.322Z,22.30
2018-08-09T17:04:57.619Z,22.30
2018-08-09T17:07:25.791Z,22.20
2018-08-09T17:09:53.933Z,22.20
2018-08-09T17:12:22.105Z,22.20
2018-08-09T17:14:50.247Z,22.10
2018-08-09T17:17:18.389Z,22.00
2018-08-09T17:19:46.510Z,22.00
2018-08-09T17:22:14.726Z,21.90
2018-08-09T17:24:42.951Z,21.90
2018-08-09T17:27:11.128Z,21.90
2018-08-09T17:29:39.414Z,21.90
2018-08-09T17:32:07.682Z,21.80
2018-08-09T17:34:35.815Z,21.80
2018-08-09T17:37:04.019Z,21.70
2018-08-09T17:39:32.163Z,21.70
2018-08-09T17:42:00.338Z,21.70
2018-08-09T17:44:28.516Z,21.70
2018-08-09T17:46:56.675Z,21.70
2018-08-09T17:49:24.782Z,21.70
2018-08-09T17:51:53.277Z,21.60
2018-08-09T17:54:21.867Z,21.60
2018-08-09T17:56:50.895Z,21.60
2018-08-09T17:59:20.094Z,21.60
2018-08-09T18:01:48.639Z,21.60
2018-08-09T18:04:17.099Z,21.60
2018-08-09T18:06:45.304Z,21.50
2018-08-09T18:09:13.551Z,21.50
2018-08-09T18:11:41.819Z,21.50
2018-08-09T18:14:09.988Z,21.50
2018-08-09T18:16:38.576Z,21.40
2018-08-09T18:19:07.449Z,21.40
2018-08-09T18:21:35.677Z,21.40
2018-08-09T18:24:03.943Z,21.30
2018-08-09T18:26:32.220Z,21.40
2018-08-09T18:29:00.507Z,21.30
2018-08-09T18:31:28.711Z,21.30
2018-08-09T18:33:57.024Z,21.30
2018-08-09T18:36:25.216Z,21.20
2018-08-09T18:38:53.419Z,21.20
2018-08-09T18:41:21.658Z,21.20
2018-08-09T18:43:49.907Z,21.10
2018-08-09T18:46:18.114Z,21.10
2018-08-09T18:48:46.977Z,21.10
2018-08-09T18:51:15.231Z,21.00
2018-08-09T18:53:43.427Z,21.00
2018-08-09T18:56:11.619Z,20.90
2018-08-09T18:58:39.799Z,20.90
2018-08-09T19:01:09.571Z,20.90
2018-08-09T19:03:37.897Z,20.80
2018-08-09T19:06:06.189Z,20.70
2018-08-09T19:08:34.620Z,20.70
2018-08-09T19:11:03.187Z,20.70
2018-08-09T19:13:31.357Z,20.60
2018-08-09T19:15:59.559Z,20.50
2018-08-09T19:18:27.772Z,20.40
2018-08-09T19:20:55.898Z,20.40
2018-08-09T19:23:24.099Z,20.30
2018-08-09T19:25:52.817Z,20.20
2018-08-09T19:28:20.985Z,20.10
2018-08-09T19:30:49.295Z,20.10
2018-08-09T19:33:17.544Z,20.10
2018-08-09T19:35:45.850Z,20.00
2018-08-09T19:38:14.053Z,19.90
2018-08-09T19:40:42.550Z,19.80
2018-08-09T19:43:11.051Z,19.80
2018-08-09T19:45:39.260Z,19.80
2018-08-09T19:48:07.500Z,19.70
2018-08-09T19:50:35.631Z,19.60
2018-08-09T19:53:03.879Z,19.60
2018-08-09T19:55:32.522Z,19.50
2018-08-09T19:58:00.940Z,19.40
2018-08-09T20:00:30.479Z,19.40
2018-08-09T20:02:58.661Z,19.30
2018-08-09T20:05:26.841Z,19.20
2018-08-09T20:07:55.175Z,19.20
2018-08-09T20:10:23.414Z,19.10
2018-08-09T20:12:51.652Z,19.10
2018-08-09T20:15:21.772Z,19.10
2018-08-09T20:17:50.090Z,19.10
2018-08-09T20:20:19.867Z,19.00
2018-08-09T20:22:49.074Z,19.00
2018-08-09T20:25:17.229Z,18.90
2018-08-09T20:27:46.265Z,18.90
2018-08-09T20:30:16.092Z,18.90
2018-08-09T20:32:45.104Z,18.80
2018-08-09T20:35:14.908Z,18.80
2018-08-09T20:37:44.124Z,18.80
2018-08-09T20:40:12.918Z,18.70
2018-08-09T20:42:41.606Z,18.70
2018-08-09T20:45:13.934Z,18.70
2018-08-09T20:47:42.182Z,18.70
2018-08-09T20:50:13.483Z,18.70
2018-08-09T20:52:42.323Z,18.60
2018-08-09T20:55:12.461Z,18.70
2018-08-09T20:57:42.472Z,18.70
2018-08-09T21:00:14.418Z,18.70
2018-08-09T21:02:43.848Z,18.70
2018-08-09T21:05:17.430Z,18.70
2018-08-09T21:07:47.874Z,18.70
2018-08-09T21:10:16.673Z,18.60
2018-08-09T21:12:45.073Z,18.50
2018-08-09T21:15:13.337Z,18.50
2018-08-09T21:17:41.726Z,18.40
2018-08-09T21:20:10.127Z,18.40
2018-08-09T21:22:38.916Z,18.40
2018-08-09T21:25:08.072Z,18.30
2018-08-09T21:27:36.235Z,18.30
2018-08-09T21:30:05.507Z,18.30
2018-08-09T21:32:34.095Z,18.30
2018-08-09T21:35:02.723Z,18.30
2018-08-09T21:37:31.007Z,18.30
2018-08-09T21:39:59.565Z,18.30
2018-08-09T21:42:27.780Z,18.30
2018-08-09T21:44:56.244Z,18.30
2018-08-09T21:47:24.497Z,18.30
2018-08-09T21:49:52.691Z,18.30
2018-08-09T21:52:20.896Z,18.30
2018-08-09T21:54:49.203Z,18.20
2018-08-09T21:57:17.383Z,18.20
2018-08-09T21:59:46.955Z,18.30
2018-08-09T22:02:17.423Z,18.20
2018-08-09T22:04:52.146Z,18.30
2018-08-09T22:07:25.835Z,18.30
2018-08-09T22:09:59.484Z,18.20
2018-08-09T22:12:33.221Z,18.20
2018-08-09T22:15:06.879Z,18.20
2018-08-09T22:17:40.536Z,18.10
2018-08-09T22:20:14.248Z,18.10
2018-08-09T22:22:42.446Z,18.00
2018-08-09T22:25:10.697Z,18.00
2018-08-09T22:27:38.903Z,18.00
2018-08-09T22:30:10.012Z,17.90
2018-08-09T22:32:41.134Z,17.80
2018-08-09T22:35:09.470Z,17.70
2018-08-09T22:37:38.522Z,17.50
2018-08-09T22:40:07.280Z,17.30
2018-08-09T22:42:35.569Z,17.20
2018-08-09T22:45:04.386Z,17.10
2018-08-09T22:47:32.700Z,17.10
2018-08-09T22:50:00.878Z,17.00
2018-08-09T22:52:29.109Z,16.90
2018-08-09T22:54:57.312Z,16.90
2018-08-09T22:57:26.051Z,16.80
2018-08-09T22:59:54.206Z,16.80
2018-08-09T23:02:23.106Z,16.70
2018-08-09T23:04:51.721Z,16.70
2018-08-09T23:07:19.981Z,16.60
2018-08-09T23:09:48.675Z,16.50
2018-08-09T23:12:18.169Z,16.50
2018-08-09T23:14:47.284Z,16.40
2018-08-09T23:17:16.407Z,16.30
2018-08-09T23:19:44.819Z,16.20
2018-08-09T23:22:17.659Z,16.20
2018-08-09T23:24:46.948Z,16.10
2018-08-09T23:27:15.688Z,16.00
2018-08-09T23:29:47.127Z,16.00
2018-08-09T23:32:17.324Z,15.90
2018-08-09T23:34:45.711Z,15.80
2018-08-09T23:37:14.676Z,15.80
2018-08-09T23:39:43.680Z,15.70
2018-08-09T23:42:12.141Z,15.60
2018-08-09T23:44:40.424Z,15.60
2018-08-09T23:47:08.693Z,15.60
2018-08-09T23:49:37.049Z,15.50
2018-08-09T23:52:06.213Z,15.50
2018-08-09T23:54:34.552Z,15.40
2018-08-09T23:57:02.837Z,15.30
2018-08-09T23:59:31.038Z,15.30
